createdAt,value
2023-03-05T00:00:19.167Z,12.10
2023-03-05T00:02:45.968Z,10.33
2023-03-05T00:05:12.732Z,11.53
2023-03-05T00:07:39.376Z,12.27
2023-03-05T00:10:06.617Z,12.60
2023-03-05T00:12:33.553Z,9.70
2023-03-05T00:15:00.219Z,10.10
2023-03-05T00:17:26.814Z,13.60
2023-03-05T00:19:53.498Z,13.37
2023-03-05T00:22:20.143Z,13.97
2023-03-05T00:24:46.726Z,12.07
2023-03-05T00:27:13.339Z,12.90
2023-03-05T00:29:40.210Z,12.73
2023-03-05T00:32:08.101Z,12.97
2023-03-05T00:34:36.261Z,15.30
2023-03-05T00:37:03.095Z,14.97
2023-03-05T00:39:29.710Z,14.53
2023-03-05T00:41:56.996Z,14.23
2023-03-05T00:44:24.133Z,13.80
2023-03-05T00:46:50.926Z,14.17
2023-03-05T00:49:17.619Z,14.30
2023-03-05T00:51:44.634Z,17.50
2023-03-05T00:54:11.321Z,15.13
2023-03-05T00:56:38.000Z,14.90
2023-03-05T00:59:05.006Z,16.97
2023-03-05T01:01:31.797Z,14.67
2023-03-05T01:03:59.912Z,12.13
2023-03-05T01:06:27.221Z,13.50
2023-03-05T01:08:54.417Z,13.10
2023-03-05T01:11:21.010Z,15.30
2023-03-05T01:13:47.750Z,13.40
2023-03-05T01:16:14.401Z,14.70
2023-03-05T01:18:41.097Z,13.63
2023-03-05T01:21:07.992Z,14.23
2023-03-05T01:23:37.203Z,13.93
2023-03-05T01:26:04.959Z,13.40
2023-03-05T01:28:32.573Z,14.63
2023-03-05T01:30:59.261Z,12.37
2023-03-05T01:33:26.056Z,12.50
2023-03-05T01:35:52.823Z,13.57
2023-03-05T01:38:19.581Z,11.20
2023-03-05T01:40:46.683Z,10.47
2023-03-05T01:43:13.541Z,11.47
2023-03-05T01:46:18.741Z,12.40
2023-03-05T01:48:54.546Z,10.10
2023-03-05T01:51:25.093Z,9.27
2023-03-05T01:53:53.616Z,9.63
2023-03-05T01:56:21.175Z,8.70
2023-03-05T01:58:48.073Z,8.97
2023-03-05T02:01:14.881Z,9.67
2023-03-05T02:03:42.205Z,8.10
2023-03-05T02:06:09.426Z,7.97
2023-03-05T02:08:36.158Z,8.60
2023-03-05T02:11:03.668Z,8.97
2023-03-05T02:13:35.697Z,8.57
2023-03-05T02:16:02.893Z,8.33
2023-03-05T02:18:29.922Z,8.30
2023-03-05T02:20:56.511Z,8.47
2023-03-05T02:23:29.334Z,8.90
2023-03-05T02:25:56.232Z,8.97
2023-03-05T02:28:39.682Z,10.03
2023-03-05T02:31:17.319Z,8.83
2023-03-05T02:33:44.875Z,10.40
2023-03-05T02:36:12.227Z,9.23
2023-03-05T02:38:40.485Z,10.70
2023-03-05T02:41:07.644Z,9.03
2023-03-05T02:43:35.274Z,10.10
2023-03-05T02:46:02.957Z,8.90
2023-03-05T02:48:29.791Z,9.77
2023-03-05T02:50:57.185Z,10.43
2023-03-05T02:53:24.208Z,9.27
2023-03-05T02:55:51.616Z,9.30
2023-03-05T02:58:18.629Z,9.80
2023-03-05T03:00:46.743Z,9.33
2023-03-05T03:03:13.652Z,9.17
2023-03-05T03:05:40.881Z,9.83
2023-03-05T03:08:07.832Z,9.53
2023-03-05T03:10:34.517Z,9.60
2023-03-05T03:13:01.124Z,8.90
2023-03-05T03:15:27.763Z,10.20
2023-03-05T03:17:54.962Z,9.80
2023-03-05T03:20:22.155Z,10.13
2023-03-05T03:22:48.870Z,9.93
2023-03-05T03:25:18.249Z,9.93
2023-03-05T03:27:45.036Z,9.23
2023-03-05T03:30:13.207Z,9.20
2023-03-05T03:32:40.145Z,9.00
2023-03-05T03:35:07.633Z,9.70
2023-03-05T03:37:34.267Z,9.53
2023-03-05T03:40:01.086Z,10.00
2023-03-05T03:42:27.952Z,9.37
2023-03-05T03:44:54.586Z,10.80
2023-03-05T03:47:21.307Z,9.63
2023-03-05T03:49:48.022Z,10.47
2023-03-05T03:52:14.894Z,10.20
2023-03-05T03:54:41.504Z,10.40
2023-03-05T03:57:08.172Z,9.80
2023-03-05T03:59:34.764Z,10.17
2023-03-05T04:02:01.440Z,10.27
2023-03-05T04:04:29.087Z,10.30
2023-03-05T04:06:56.510Z,10.13
2023-03-05T04:09:23.189Z,10.87
2023-03-05T04:11:49.808Z,11.20
2023-03-05T04:14:16.396Z,10.57
2023-03-05T04:16:42.971Z,10.43
2023-03-05T04:19:09.661Z,10.37
2023-03-05T04:21:36.294Z,9.23
2023-03-05T04:24:03.063Z,10.53
2023-03-05T04:26:29.644Z,10.70
2023-03-05T04:28:56.267Z,11.10
2023-03-05T04:31:23.765Z,9.63
2023-03-05T04:33:50.579Z,10.77
2023-03-05T04:36:17.241Z,10.03
2023-03-05T04:38:43.921Z,11.30
2023-03-05T04:41:10.488Z,10.77
2023-03-05T04:43:37.123Z,10.73
2023-03-05T04:46:03.904Z,10.47
2023-03-05T04:48:30.582Z,10.93
2023-03-05T04:50:57.877Z,11.07
2023-03-05T04:53:24.876Z,10.93
2023-03-05T04:55:55.279Z,10.53
2023-03-05T04:58:23.337Z,10.47
2023-03-05T05:00:50.011Z,10.40
2023-03-05T05:03:16.650Z,10.67
2023-03-05T05:05:43.261Z,10.63
2023-03-05T05:08:10.465Z,11.20
2023-03-05T05:10:39.545Z,10.30
2023-03-05T05:13:06.393Z,9.97
2023-03-05T05:15:33.063Z,11.30
2023-03-05T05:17:59.686Z,11.77
2023-03-05T05:20:26.268Z,11.13
2023-03-05T05:22:52.891Z,10.27
2023-03-05T05:25:19.524Z,11.70
2023-03-05T05:27:46.114Z,10.40
2023-03-05T05:30:13.109Z,11.13
2023-03-05T05:32:39.822Z,11.13
2023-03-05T05:35:07.022Z,9.63
2023-03-05T05:37:33.622Z,10.73
2023-03-05T05:40:00.476Z,10.63
2023-03-05T05:42:27.823Z,10.63
2023-03-05T05:44:55.421Z,10.40
2023-03-05T05:47:22.185Z,10.43
2023-03-05T05:49:48.864Z,10.43
2023-03-05T05:52:15.598Z,11.30
2023-03-05T05:54:42.238Z,10.70
2023-03-05T05:57:08.960Z,9.63
2023-03-05T05:59:36.026Z,10.03
2023-03-05T06:02:03.620Z,9.27
2023-03-05T06:04:30.329Z,9.33
2023-03-05T06:06:58.146Z,9.30
2023-03-05T06:09:24.741Z,9.40
2023-03-05T06:11:51.494Z,8.23
2023-03-05T06:14:18.090Z,9.00
2023-03-05T06:16:44.751Z,8.27
2023-03-05T06:19:15.270Z,9.00
2023-03-05T06:21:43.647Z,8.70
2023-03-05T06:24:11.196Z,7.73
2023-03-05T06:26:37.921Z,8.43
2023-03-05T06:29:04.575Z,9.57
2023-03-05T06:31:31.283Z,9.97
2023-03-05T06:34:01.378Z,8.50
2023-03-05T06:36:28.979Z,8.87
2023-03-05T06:38:56.303Z,8.83
2023-03-05T06:41:30.752Z,8.60
2023-03-05T06:44:00.018Z,8.40
2023-03-05T06:46:29.418Z,8.40
2023-03-05T06:48:58.099Z,8.13
2023-03-05T06:51:25.865Z,8.97
2023-03-05T06:53:53.668Z,7.33
2023-03-05T06:56:21.135Z,8.07
2023-03-05T06:58:51.333Z,8.50
2023-03-05T07:01:19.638Z,7.37
2023-03-05T07:03:50.662Z,7.30
2023-03-05T07:06:18.116Z,7.70
2023-03-05T07:08:45.009Z,6.93
2023-03-05T07:11:18.055Z,7.37
2023-03-05T07:13:47.636Z,7.13
2023-03-05T07:16:17.683Z,6.63
2023-03-05T07:18:44.420Z,7.07
2023-03-05T07:21:18.261Z,7.17
2023-03-05T07:23:45.476Z,6.83
2023-03-05T07:26:12.724Z,7.63
2023-03-05T07:28:39.388Z,7.57
2023-03-05T07:31:12.172Z,7.33
2023-03-05T07:33:38.957Z,6.23
2023-03-05T07:36:08.768Z,7.23
2023-03-05T07:38:35.458Z,6.90
2023-03-05T07:41:07.534Z,7.17
2023-03-05T07:43:34.251Z,7.27
2023-03-05T07:46:04.754Z,6.57
2023-03-05T07:48:31.481Z,6.97
2023-03-05T07:51:09.872Z,7.30
2023-03-05T07:53:36.714Z,7.17
2023-03-05T07:56:03.940Z,7.07
2023-03-05T07:58:30.578Z,7.03
2023-03-05T08:00:57.181Z,6.67
2023-03-05T08:03:24.087Z,6.43
2023-03-05T08:05:51.788Z,7.07
2023-03-05T08:08:18.727Z,6.63
2023-03-05T08:10:45.584Z,6.83
2023-03-05T08:13:12.172Z,6.30
2023-03-05T08:15:38.909Z,6.87
2023-03-05T08:18:05.628Z,7.33
2023-03-05T08:20:35.715Z,7.33
2023-03-05T08:23:03.280Z,7.23
2023-03-05T08:25:30.351Z,7.70
2023-03-05T08:27:57.084Z,6.77
2023-03-05T08:30:27.573Z,8.40
2023-03-05T08:32:55.286Z,6.47
2023-03-05T08:35:22.079Z,7.40
2023-03-05T08:37:48.983Z,6.77
2023-03-05T08:40:17.952Z,7.03
2023-03-05T08:42:45.412Z,5.43
2023-03-05T08:45:12.803Z,7.50
2023-03-05T08:47:39.455Z,5.97
2023-03-05T08:50:06.433Z,6.07
2023-03-05T08:52:33.112Z,6.00
2023-03-05T08:54:59.710Z,5.93
2023-03-05T08:57:26.300Z,5.97
2023-03-05T08:59:52.997Z,6.43
2023-03-05T09:02:19.614Z,6.30
2023-03-05T09:04:46.193Z,5.90
2023-03-05T09:07:13.042Z,6.50
2023-03-05T09:09:40.243Z,6.07
2023-03-05T09:12:07.098Z,5.90
2023-03-05T09:14:33.823Z,8.63
2023-03-05T09:17:01.941Z,5.97
2023-03-05T09:19:28.583Z,6.27
2023-03-05T09:21:56.985Z,8.33
2023-03-05T09:24:23.739Z,8.00
2023-03-05T09:26:50.572Z,5.93
2023-03-05T09:29:17.326Z,9.00
2023-03-05T09:31:44.137Z,7.73
2023-03-05T09:34:11.801Z,6.07
2023-03-05T09:36:38.539Z,6.00
2023-03-05T09:39:06.982Z,4.53
2023-03-05T09:42:05.664Z,7.73
2023-03-05T09:44:58.046Z,5.50
2023-03-05T09:47:43.663Z,4.63
2023-03-05T09:50:41.844Z,4.90
2023-03-05T09:53:30.411Z,4.40
2023-03-05T09:56:04.402Z,4.77
2023-03-05T09:58:37.247Z,5.00
2023-03-05T10:01:18.830Z,4.90
2023-03-05T10:04:03.832Z,5.43
2023-03-05T10:06:36.739Z,5.10
2023-03-05T10:09:21.368Z,4.63
2023-03-05T10:11:56.673Z,4.87
2023-03-05T10:14:30.148Z,5.03
2023-03-05T10:17:26.328Z,4.70
2023-03-05T10:19:58.695Z,9.63
2023-03-05T10:22:31.783Z,5.53
2023-03-05T10:25:26.195Z,9.07
2023-03-05T10:28:05.804Z,9.23
2023-03-05T10:31:10.070Z,6.00
2023-03-05T10:34:00.872Z,8.67
2023-03-05T10:36:50.804Z,12.57
2023-03-05T10:39:26.314Z,8.13
2023-03-05T10:42:22.014Z,7.47
2023-03-05T10:44:58.101Z,5.27
2023-03-05T10:47:36.750Z,6.83
2023-03-05T10:50:21.854Z,6.40
2023-03-05T10:52:55.376Z,6.07
2023-03-05T10:55:22.727Z,6.60
2023-03-05T10:57:49.617Z,5.10
2023-03-05T11:00:25.787Z,5.30
2023-03-05T11:03:01.698Z,5.57
2023-03-05T11:05:46.950Z,4.70
2023-03-05T11:08:26.213Z,5.27
2023-03-05T11:11:09.065Z,5.33
2023-03-05T11:13:51.303Z,4.53
2023-03-05T11:16:48.159Z,5.10
2023-03-05T11:19:41.420Z,5.27
2023-03-05T11:22:24.179Z,5.23
2023-03-05T11:25:15.939Z,4.97
2023-03-05T11:27:53.731Z,5.30
2023-03-05T11:30:31.073Z,4.67
2023-03-05T11:33:15.571Z,4.63
2023-03-05T11:35:43.771Z,5.20
2023-03-05T11:38:41.127Z,4.70
2023-03-05T11:41:10.453Z,3.83
2023-03-05T11:43:41.500Z,4.57
2023-03-05T11:46:12.385Z,4.43
2023-03-05T11:48:41.259Z,4.30
2023-03-05T11:51:33.660Z,4.07
2023-03-05T11:54:07.562Z,4.90
2023-03-05T11:56:37.156Z,4.53
2023-03-05T11:59:24.928Z,4.57
2023-03-05T12:01:54.351Z,4.37
2023-03-05T12:04:22.194Z,4.37
2023-03-05T12:07:01.625Z,4.27
2023-03-05T12:09:43.489Z,5.00
2023-03-05T12:12:36.094Z,5.30
2023-03-05T12:15:11.929Z,4.07
2023-03-05T12:17:51.971Z,9.87
2023-03-05T12:20:33.303Z,7.63
2023-03-05T12:23:00.055Z,8.80
2023-03-05T12:25:28.941Z,7.93
2023-03-05T12:27:55.524Z,4.90
2023-03-05T12:30:34.067Z,7.13
2023-03-05T12:33:03.130Z,5.67
2023-03-05T12:35:38.113Z,6.50
2023-03-05T12:38:32.331Z,9.83
2023-03-05T12:41:27.579Z,7.33
2023-03-05T12:44:07.001Z,5.67
2023-03-05T12:46:37.003Z,4.07
2023-03-05T12:49:18.827Z,2.53
2023-03-05T12:51:47.256Z,3.57
2023-03-05T12:54:31.698Z,5.60
2023-03-05T12:57:01.430Z,3.90
2023-03-05T12:59:36.426Z,3.40
2023-03-05T13:02:16.691Z,4.30
2023-03-05T13:04:45.804Z,3.00
2023-03-05T13:07:17.639Z,3.87
2023-03-05T13:09:55.315Z,3.13
2023-03-05T13:12:24.419Z,3.50
2023-03-05T13:15:03.265Z,2.90
2023-03-05T13:17:38.279Z,3.37
2023-03-05T13:20:27.382Z,3.30
2023-03-05T13:23:18.466Z,3.60
2023-03-05T13:26:18.547Z,3.57
2023-03-05T13:29:18.791Z,3.17
2023-03-05T13:31:47.278Z,3.90
2023-03-05T13:34:32.117Z,3.43
2023-03-05T13:37:07.496Z,3.70
2023-03-05T13:39:43.944Z,3.10
2023-03-05T13:42:20.123Z,30.70
2023-03-05T13:44:58.516Z,8.57
2023-03-05T13:47:30.523Z,6.60
2023-03-05T13:50:06.354Z,5.40
2023-03-05T13:52:36.218Z,10.90
2023-03-05T13:55:12.037Z,8.23
2023-03-05T13:57:42.158Z,7.60
2023-03-05T14:00:33.601Z,5.03
2023-03-05T14:03:09.376Z,4.00
2023-03-05T14:05:36.948Z,4.73
2023-03-05T14:08:03.996Z,4.33
2023-03-05T14:10:35.998Z,4.53
2023-03-05T14:13:11.566Z,4.03
2023-03-05T14:15:39.170Z,4.20
2023-03-05T14:18:11.793Z,3.57
2023-03-05T14:20:59.779Z,4.07
2023-03-05T14:23:32.579Z,4.00
2023-03-05T14:26:34.839Z,3.97
2023-03-05T14:29:13.088Z,6.37
2023-03-05T14:31:53.520Z,8.07
2023-03-05T14:34:30.824Z,4.93
2023-03-05T14:37:03.955Z,4.53
2023-03-05T14:40:07.294Z,3.97
2023-03-05T14:42:38.634Z,3.73
2023-03-05T14:45:18.585Z,4.17
2023-03-05T14:47:45.993Z,4.13
2023-03-05T14:50:27.332Z,4.40
2023-03-05T14:53:00.205Z,5.67
2023-03-05T14:55:31.572Z,5.13
2023-03-05T14:58:04.347Z,7.23
2023-03-05T15:00:31.662Z,7.47
2023-03-05T15:02:58.425Z,5.00
2023-03-05T15:05:25.384Z,3.80
2023-03-05T15:07:52.332Z,3.53
2023-03-05T15:10:21.897Z,3.60
2023-03-05T15:12:50.374Z,3.57
2023-03-05T15:15:18.293Z,3.80
2023-03-05T15:17:51.656Z,4.30
2023-03-05T15:20:24.756Z,5.13
2023-03-05T15:22:52.040Z,3.90
2023-03-05T15:25:20.564Z,4.03
2023-03-05T15:27:47.218Z,4.50
2023-03-05T15:30:35.888Z,4.60
2023-03-05T15:33:06.399Z,4.33
2023-03-05T15:35:33.594Z,4.27
2023-03-05T15:38:00.370Z,5.50
2023-03-05T15:40:30.511Z,7.27
2023-03-05T15:42:58.562Z,5.40
2023-03-05T15:45:25.765Z,4.37
2023-03-05T15:47:53.144Z,4.10
2023-03-05T15:50:21.551Z,9.20
2023-03-05T15:52:49.146Z,4.37
2023-03-05T15:55:18.124Z,7.80
2023-03-05T15:57:48.031Z,5.73
2023-03-05T16:00:17.117Z,5.87
2023-03-05T16:02:43.724Z,5.00
2023-03-05T16:05:10.450Z,25.37
2023-03-05T16:07:40.944Z,6.67
2023-03-05T16:10:11.779Z,5.63
2023-03-05T16:12:43.141Z,4.50
2023-03-05T16:15:17.002Z,3.80
2023-03-05T16:17:47.268Z,4.13
2023-03-05T16:20:15.572Z,3.73
2023-03-05T16:22:42.283Z,3.40
2023-03-05T16:25:09.296Z,4.73
2023-03-05T16:27:35.902Z,5.37
2023-03-05T16:30:04.315Z,3.63
2023-03-05T16:32:31.149Z,3.53
2023-03-05T16:34:58.143Z,4.00
2023-03-05T16:37:25.549Z,4.40
2023-03-05T16:39:52.270Z,4.27
2023-03-05T16:42:18.953Z,3.63
2023-03-05T16:44:47.279Z,4.03
2023-03-05T16:47:14.007Z,3.57
2023-03-05T16:49:40.692Z,3.37
2023-03-05T16:52:18.195Z,3.27
2023-03-05T16:54:45.694Z,3.80
2023-03-05T16:57:12.453Z,3.60
2023-03-05T16:59:39.372Z,3.50
2023-03-05T17:02:06.296Z,5.50
2023-03-05T17:04:32.985Z,4.23
2023-03-05T17:06:59.870Z,4.17
2023-03-05T17:09:26.561Z,3.60
2023-03-05T17:11:54.284Z,3.80
2023-03-05T17:14:21.634Z,4.10
2023-03-05T17:16:48.582Z,3.20
2023-03-05T17:19:15.703Z,3.80
2023-03-05T17:21:42.795Z,3.80
2023-03-05T17:24:10.192Z,3.37
2023-03-05T17:26:37.437Z,4.00
2023-03-05T17:29:05.283Z,3.70
2023-03-05T17:31:32.233Z,10.13
2023-03-05T17:33:58.981Z,6.80
2023-03-05T17:36:25.990Z,6.63
2023-03-05T17:38:53.456Z,6.03
2023-03-05T17:41:20.854Z,6.10
2023-03-05T17:43:47.796Z,7.00
2023-03-05T17:46:15.462Z,4.47
2023-03-05T17:48:42.208Z,5.57
2023-03-05T17:51:12.184Z,4.77
2023-03-05T17:53:40.143Z,5.00
2023-03-05T17:56:08.764Z,4.97
2023-03-05T17:58:36.137Z,4.67
2023-03-05T18:01:04.440Z,4.77
2023-03-05T18:03:31.273Z,4.50
2023-03-05T18:05:57.863Z,4.40
2023-03-05T18:08:24.463Z,4.40
2023-03-05T18:10:51.066Z,4.40
2023-03-05T18:13:18.039Z,4.33
2023-03-05T18:15:47.634Z,4.97
2023-03-05T18:18:18.167Z,4.60
2023-03-05T18:20:45.775Z,4.40
2023-03-05T18:23:13.024Z,4.60
2023-03-05T18:25:39.931Z,5.13
2023-03-05T18:28:13.649Z,5.47
2023-03-05T18:30:41.941Z,6.17
2023-03-05T18:33:13.613Z,4.53
2023-03-05T18:35:40.258Z,5.20
2023-03-05T18:38:06.988Z,5.27
2023-03-05T18:40:35.858Z,5.83
2023-03-05T18:43:03.230Z,6.17
2023-03-05T18:45:30.704Z,7.17
2023-03-05T18:47:57.743Z,5.20
2023-03-05T18:50:26.463Z,5.40
2023-03-05T18:52:53.776Z,5.73
2023-03-05T18:55:27.133Z,4.80
2023-03-05T18:57:54.126Z,5.17
2023-03-05T19:00:24.196Z,5.00
2023-03-05T19:02:51.109Z,5.43
2023-03-05T19:05:18.963Z,5.30
2023-03-05T19:07:46.541Z,4.87
2023-03-05T19:10:14.939Z,4.40
2023-03-05T19:13:05.569Z,5.80
2023-03-05T19:15:32.401Z,4.40
2023-03-05T19:17:59.578Z,5.00
2023-03-05T19:20:26.277Z,5.37
2023-03-05T19:22:55.582Z,4.80
2023-03-05T19:25:22.800Z,7.90
2023-03-05T19:27:49.504Z,4.80
2023-03-05T19:30:16.905Z,4.67
2023-03-05T19:32:45.619Z,5.43
2023-03-05T19:35:15.045Z,5.07
2023-03-05T19:37:42.004Z,5.07
2023-03-05T19:40:09.357Z,4.37
2023-03-05T19:42:37.940Z,5.00
2023-03-05T19:45:05.751Z,4.77
2023-03-05T19:47:32.464Z,5.00
2023-03-05T19:49:59.074Z,5.10
2023-03-05T19:52:26.696Z,5.27
2023-03-05T19:54:53.369Z,4.60
2023-03-05T19:57:19.996Z,5.87
2023-03-05T19:59:46.747Z,6.50
2023-03-05T20:02:13.593Z,5.70
2023-03-05T20:04:40.265Z,6.13
2023-03-05T20:07:07.119Z,6.67
2023-03-05T20:09:33.750Z,5.70
2023-03-05T20:12:02.630Z,5.77
2023-03-05T20:14:29.461Z,5.73
2023-03-05T20:16:56.045Z,6.63
2023-03-05T20:19:22.636Z,6.17
2023-03-05T20:21:49.277Z,6.10
2023-03-05T20:24:18.264Z,5.00
2023-03-05T20:26:46.565Z,5.20
2023-03-05T20:29:17.599Z,5.00
2023-03-05T20:31:46.237Z,5.67
2023-03-05T20:34:15.783Z,5.37
2023-03-05T20:36:42.545Z,5.50
2023-03-05T20:39:09.283Z,4.80
2023-03-05T20:41:38.354Z,4.50
2023-03-05T20:44:05.688Z,6.03
2023-03-05T20:46:35.872Z,5.97
2023-03-05T20:49:04.027Z,5.53
2023-03-05T20:51:34.984Z,5.00
2023-03-05T20:54:07.486Z,5.43
2023-03-05T20:56:35.059Z,6.93
2023-03-05T20:59:04.907Z,5.20
2023-03-05T21:01:34.155Z,5.50
2023-03-05T21:04:02.341Z,4.70
2023-03-05T21:06:30.888Z,5.40
2023-03-05T21:08:58.173Z,4.90
2023-03-05T21:11:24.959Z,5.50
2023-03-05T21:13:51.762Z,5.27
2023-03-05T21:16:22.292Z,5.23
2023-03-05T21:18:50.788Z,4.97
2023-03-05T21:21:18.055Z,4.97
2023-03-05T21:23:45.736Z,5.63
2023-03-05T21:26:13.486Z,5.83
2023-03-05T21:28:40.819Z,6.50
2023-03-05T21:31:10.094Z,5.70
2023-03-05T21:33:37.000Z,5.67
2023-03-05T21:36:05.618Z,4.90
2023-03-05T21:38:34.022Z,5.70
2023-03-05T21:41:01.811Z,6.17
2023-03-05T21:43:30.986Z,6.87
2023-03-05T21:45:58.483Z,6.80
2023-03-05T21:48:25.470Z,6.37
2023-03-05T21:50:52.620Z,6.57
2023-03-05T21:53:19.627Z,5.50
2023-03-05T21:56:02.474Z,5.60
2023-03-05T21:58:31.162Z,5.43
2023-03-05T22:00:58.848Z,6.03
2023-03-05T22:03:26.999Z,5.33
2023-03-05T22:05:54.247Z,5.13
2023-03-05T22:08:22.511Z,5.60
2023-03-05T22:10:49.632Z,6.73
2023-03-05T22:13:17.881Z,5.40
2023-03-05T22:15:45.953Z,6.93
2023-03-05T22:18:14.284Z,5.57
2023-03-05T22:20:41.334Z,5.77
2023-03-05T22:23:08.604Z,5.53
2023-03-05T22:25:36.084Z,5.93
2023-03-05T22:28:03.978Z,6.00
2023-03-05T22:30:31.980Z,5.57
2023-03-05T22:33:02.631Z,6.57
2023-03-05T22:35:29.808Z,7.23
2023-03-05T22:37:58.134Z,6.53
2023-03-05T22:40:24.900Z,7.17
2023-03-05T22:42:51.609Z,5.83
2023-03-05T22:45:18.729Z,6.90
2023-03-05T22:47:51.649Z,6.37
2023-03-05T22:50:18.428Z,8.43
2023-03-05T22:52:45.205Z,8.80
2023-03-05T22:55:14.191Z,5.60
2023-03-05T22:57:41.468Z,7.77
2023-03-05T23:00:13.345Z,7.20
2023-03-05T23:02:41.616Z,7.60
2023-03-05T23:05:09.832Z,9.47
2023-03-05T23:07:39.298Z,6.13
2023-03-05T23:10:26.813Z,5.63
2023-03-05T23:12:55.804Z,9.60
2023-03-05T23:15:25.838Z,6.80
2023-03-05T23:17:52.747Z,8.20
2023-03-05T23:20:22.890Z,9.43
2023-03-05T23:22:52.874Z,7.63
2023-03-05T23:25:22.985Z,5.73
2023-03-05T23:27:50.375Z,8.77
2023-03-05T23:30:37.040Z,7.40
2023-03-05T23:33:15.988Z,6.47
2023-03-05T23:35:50.241Z,8.43
2023-03-05T23:38:17.543Z,9.50
2023-03-05T23:40:49.716Z,7.37
2023-03-05T23:43:18.339Z,8.33
2023-03-05T23:45:48.058Z,8.97
2023-03-05T23:48:15.724Z,7.47
2023-03-05T23:50:45.182Z,8.57
2023-03-05T23:53:17.473Z,10.50
2023-03-05T23:55:44.916Z,8.17
2023-03-05T23:58:12.053Z,7.23
